Terminal Aerodrome Forecast
Issued by NWS

Home | Current Version | Previous Version | Text Only | Print | Product List | Glossary On
Versions: 1 2 3 4 5 6 7 8 9 10 11 12 13 14
000
FTUS42 TJSJ 232300 RRA
TAFJSJ
TAF
TJSJ 232341Z 2400/2424 16007KT P6SM VCSH SCT030
     FM241300 08012KT P6SM FEW025
     FM242200 11006KT P6SM SCT030=

USA.gov is the U.S. government's official web portal to all federal, state and local government web resources and services.